Spokane, Washington
Current Conditions -  °F | °C
As of 11:53 AM on Saturday 25 Oct 2014 (Local Time) from KSFF Reporting Station
Clear Clear  
Wind Chill: 15°   Ceiling: Unl
Heat Index: 15°   Visibility: 10mi
Dew Point:   Wind: 10mph
Humidity: 53%   Direction: 100°E
Pressure: 29.61"   Gusts: NA
Location:  47.66°N, 117.41°W
Report Text: KSFF 251853Z 10009KT 10SM CLR 15/06 A2961 RMK AO2 SLP024 T01500056
Loading
Personal Weather Stations






























Interactive Weather Map
Tropical Storm Tracking
New forecast layout! Learn more

10-Day Weather Forecast

Advertisements
Track Severe Weather on mobile